ftp/pub/mcmurdo/phoenix/solar/2018/10/NZFX.CRREL.SOLAR.2018.10.09.1050.dat

Download

"TOA5","C150","CR1000","43625","CR1000.Std.22","CPU:247411_r6_eppley7.CR1","60899","eppley_data"
"TIMESTAMP","RECORD","PIR_net","Case_Temp_K","PSP_in_Avg","PSP_in_Min","PSP_in_Max","PIR_in_Avg","PIR_in_Min","PIR_in_Max","wd_2minavg","ws_2minavg","AirTC","RH","BP_mbar"
"TS","RN","","","","","","","","","","","Deg C","Percent","Millibar"
"","","Smp","Smp","Avg","Min","Max","Avg","Min","Max","Smp","Smp","Smp","Smp","Smp"
"2018-10-09 10:50:00",33924,"NAN","NAN",0.629,0.395,0.79,"NAN","NAN","NAN",162.7,8.69,-12.59,77.65,978
"2018-10-09 11:00:00",33925,"NAN","NAN",0.672,0,1.58,"NAN","NAN","NAN",156.3,9.68,-12.83,79.11,978
"2018-10-09 11:10:00",33926,"NAN","NAN",0.695,0,1.58,"NAN","NAN","NAN",155.1,10.49,-12.8,79.25,978
"2018-10-09 11:20:00",33927,"NAN","NAN",0.665,0,1.58,"NAN","NAN","NAN",153.1,9.57,-12.87,79.56,978
"2018-10-09 11:30:00",33928,"NAN","NAN",0.497,0,0.79,"NAN","NAN","NAN",155.6,8.98,-12.97,79.22,977
"2018-10-09 11:40:00",33929,"NAN","NAN",0.484,0,0.79,"NAN","NAN","NAN",147.3,9.23,-12.8,76.86,977
"2018-10-09 11:50:00",33930,"NAN","NAN",0.543,0.395,0.79,"NAN","NAN","NAN",145.3,8.87,-13,77.44,977
"2018-10-09 12:00:00",33931,"NAN","NAN",0.28,0,0.395,"NAN","NAN","NAN",130.8,6.504,-13.07,76.28,977
"2018-10-09 12:10:00",33932,"NAN","NAN",0.142,0,0.79,"NAN","NAN","NAN",113.6,5.343,-13.17,76.55,977
"2018-10-09 12:20:00",33933,"NAN","NAN",0.013,0,0.395,"NAN","NAN","NAN",58.87,3.323,-13.38,78.33,977
"2018-10-09 12:30:00",33934,"NAN","NAN",0.007,0,0.395,"NAN","NAN","NAN",108.2,3.573,-13.38,79.42,976
"2018-10-09 12:40:00",33935,"NAN","NAN",0.379,0,0.79,"NAN","NAN","NAN",138.1,8.7,-13.38,79.83,976
"2018-10-09 12:50:00",33936,"NAN","NAN",0.494,0.395,0.79,"NAN","NAN","NAN",142.9,9,-13.14,76.28,976
"2018-10-09 13:00:00",33937,"NAN","NAN",0.421,0.395,0.79,"NAN","NAN","NAN",139.3,7.735,-13.11,74.2,976
"2018-10-09 13:10:00",33938,"NAN","NAN",0.333,0,0.79,"NAN","NAN","NAN",137.5,7.895,-13.21,73.41,976
"2018-10-09 13:20:00",33939,"NAN","NAN",0.155,0,0.395,"NAN","NAN","NAN",133.3,7.506,-13.28,72.05,976
"2018-10-09 13:30:00",33940,"NAN","NAN",0.04,0,0.395,"NAN","NAN","NAN",140.7,8.24,-13.11,71.5,976
"2018-10-09 13:40:00",33941,"NAN","NAN",0,0,0,"NAN","NAN","NAN",139.7,7.278,-13.28,67.75,976
"2018-10-09 13:50:00",33942,"NAN","NAN",0,0,0,"NAN","NAN","NAN",132.3,6.748,-13.89,68.33,976
"2018-10-09 14:00:00",33943,"NAN","NAN",0,0,0,"NAN","NAN","NAN",135.9,6.498,-13.92,64.33,976
"2018-10-09 14:10:00",33944,"NAN","NAN",0,0,0,"NAN","NAN","NAN",154.5,6.689,-14.3,66.31,976
"2018-10-09 14:20:00",33945,"NAN","NAN",0.003,0,0.395,"NAN","NAN","NAN",145.5,5.941,-14.4,67.1,976
"2018-10-09 14:30:00",33946,"NAN","NAN",0,0,0,"NAN","NAN","NAN",134.9,5.566,-14.5,65.43,976
"2018-10-09 14:40:00",33947,"NAN","NAN",0,0,0,"NAN","NAN","NAN",119.8,5.617,-14.88,65.19,976
"2018-10-09 14:50:00",33948,"NAN","NAN",-0.122,-0.79,0,"NAN","NAN","NAN",103.4,3.233,-15.32,66.26,976
"2018-10-09 15:00:00",33949,"NAN","NAN",-0.659,-0.79,-0.395,"NAN","NAN","NAN",45.48,1.952,-15.86,68.41,975
"2018-10-09 15:10:00",33950,"NAN","NAN",-0.757,-1.185,0,"NAN","NAN","NAN",188.3,1.248,-15.38,66.88,975
"2018-10-09 15:20:00",33951,"NAN","NAN",1.067,0,1.581,"NAN","NAN","NAN",163.2,4.318,-15.08,62.79,975
"2018-10-09 15:30:00",33952,"NAN","NAN",1.09,0.79,1.581,"NAN","NAN","NAN",125.8,6.002,-15.49,65.69,975
"2018-10-09 15:40:00",33953,"NAN","NAN",1.66,1.186,2.371,"NAN","NAN","NAN",120.8,7.149,-15.52,64.42,975
"2018-10-09 15:50:00",33954,"NAN","NAN",2.994,1.976,4.743,"NAN","NAN","NAN",114.2,4.693,-15.55,65.14,975
"2018-10-09 16:00:00",33955,"NAN","NAN",5.504,4.348,6.324,"NAN","NAN","NAN",98.8,2.733,-15.93,68.08,975
"2018-10-09 16:10:00",33956,"NAN","NAN",6.699,6.324,7.51,"NAN","NAN","NAN",110.3,4.011,-15.59,65.69,975
"2018-10-09 16:20:00",33957,"NAN","NAN",9.49,7.51,11.46,"NAN","NAN","NAN",125.5,4.93,-15.25,66.62,975
"2018-10-09 16:30:00",33958,"NAN","NAN",7.282,7.114,8.3,"NAN","NAN","NAN",140.4,4.929,-15.11,64.81,975
"2018-10-09 16:40:00",33959,"NAN","NAN",8.9,7.51,10.67,"NAN","NAN","NAN",158.4,6.679,-13.43,60.06,975
"2018-10-09 16:50:00",33960,"NAN","NAN",12.07,10.67,13.44,"NAN","NAN","NAN",145.1,7.29,-14.56,67.74,975
"2018-10-09 17:00:00",33961,"NAN","NAN",16.3,13.44,17.79,"NAN","NAN","NAN",151.5,8.92,-13.54,63.61,974
"2018-10-09 17:10:00",33962,"NAN","NAN",19.22,17.79,22.13,"NAN","NAN","NAN",163.3,11.83,-13.51,73.68,974
"2018-10-09 17:20:00",33963,"NAN","NAN",22.37,19.76,26.09,"NAN","NAN","NAN",165.5,11.27,-13.51,74.26,974
"2018-10-09 17:30:00",33964,"NAN","NAN",27.25,23.32,32.01,"NAN","NAN","NAN",148.1,7.375,-13.47,74.26,975